createdAt,value
2024-01-08T00:01:15.688Z,4.20
2024-01-08T00:06:19.286Z,3.80
2024-01-08T00:11:20.929Z,3.38
2024-01-08T00:16:22.550Z,3.80
2024-01-08T00:21:24.053Z,3.30
2024-01-08T00:26:26.048Z,3.15
2024-01-08T00:31:28.122Z,3.00
2024-01-08T00:36:29.976Z,3.60
2024-01-08T00:41:31.603Z,3.55
2024-01-08T00:46:33.132Z,2.30
2024-01-08T00:51:34.672Z,1.95
2024-01-08T00:56:36.251Z,2.53
2024-01-08T01:01:37.778Z,2.47
2024-01-08T01:06:39.308Z,2.17
2024-01-08T01:11:40.846Z,2.20
2024-01-08T01:16:42.359Z,2.40
2024-01-08T01:21:43.857Z,2.55
2024-01-08T01:26:45.376Z,2.72
2024-01-08T01:31:46.950Z,3.17
2024-01-08T01:36:49.576Z,2.13
2024-01-08T01:41:53.887Z,2.47
2024-01-08T01:46:55.460Z,2.40
2024-01-08T01:51:57.310Z,2.53
2024-01-08T01:57:01.030Z,1.80
2024-01-08T02:02:02.639Z,2.53
2024-01-08T02:07:04.670Z,2.60
2024-01-08T02:12:07.106Z,1.90
2024-01-08T02:17:08.675Z,2.10
2024-01-08T02:22:10.203Z,2.50
2024-01-08T02:27:11.716Z,2.45
2024-01-08T02:32:14.783Z,2.47
2024-01-08T02:37:16.372Z,2.05
2024-01-08T02:42:19.594Z,2.10
2024-01-08T02:47:21.281Z,2.10
2024-01-08T02:52:22.827Z,2.30
2024-01-08T02:57:24.333Z,2.08
2024-01-08T03:02:25.934Z,2.22
2024-01-08T03:07:27.577Z,2.63
2024-01-08T03:12:29.117Z,2.97
2024-01-08T03:17:30.683Z,2.72
2024-01-08T03:22:32.276Z,2.30
2024-01-08T03:27:33.778Z,2.30
2024-01-08T03:32:35.475Z,2.30
2024-01-08T03:37:37.236Z,2.50
2024-01-08T03:42:38.839Z,2.10
2024-01-08T03:47:41.279Z,2.17
2024-01-08T03:52:42.984Z,2.28
2024-01-08T03:57:44.699Z,2.42
2024-01-08T04:02:46.483Z,2.10
2024-01-08T04:07:48.109Z,2.03
2024-01-08T04:12:49.661Z,2.28
2024-01-08T04:17:52.012Z,2.25
2024-01-08T04:22:53.627Z,2.13
2024-01-08T04:27:55.231Z,1.88
2024-01-08T04:32:56.870Z,2.15
2024-01-08T04:37:58.423Z,1.48
2024-01-08T04:42:59.957Z,1.80
2024-01-08T04:48:01.550Z,1.95
2024-01-08T04:53:03.154Z,1.58
2024-01-08T04:58:06.870Z,1.45
2024-01-08T05:03:11.348Z,2.15
2024-01-08T05:08:12.927Z,1.50
2024-01-08T05:13:14.461Z,2.72
2024-01-08T05:18:16.056Z,2.30
2024-01-08T05:23:17.742Z,2.00
2024-01-08T05:28:19.280Z,1.92
2024-01-08T05:33:21.479Z,1.60
2024-01-08T05:38:23.379Z,1.52
2024-01-08T05:43:24.965Z,1.80
2024-01-08T05:48:26.702Z,1.60
2024-01-08T05:53:29.443Z,1.45
2024-01-08T05:58:33.689Z,1.58
2024-01-08T06:03:35.370Z,1.88
2024-01-08T06:08:38.564Z,1.48
2024-01-08T06:13:40.754Z,2.17
2024-01-08T06:18:42.636Z,2.20
2024-01-08T06:23:44.279Z,1.58
2024-01-08T06:28:45.798Z,2.00
2024-01-08T06:33:47.386Z,1.70
2024-01-08T06:38:48.998Z,1.80
2024-01-08T06:43:50.518Z,1.63
2024-01-08T06:48:52.374Z,1.67
2024-01-08T06:53:53.947Z,2.10
2024-01-08T06:58:55.454Z,2.05
2024-01-08T07:03:57.282Z,1.67
2024-01-08T07:08:58.796Z,2.05
2024-01-08T07:14:00.334Z,1.80
2024-01-08T07:19:02.054Z,1.98
2024-01-08T07:24:04.318Z,1.70
2024-01-08T07:29:05.833Z,1.90
2024-01-08T07:34:07.488Z,2.10
2024-01-08T07:39:09.048Z,2.05
2024-01-08T07:44:10.599Z,2.20
2024-01-08T07:49:12.307Z,2.40
2024-01-08T07:54:13.900Z,2.30
2024-01-08T07:59:15.465Z,2.30
2024-01-08T08:04:17.080Z,2.45
2024-01-08T08:09:18.662Z,2.08
2024-01-08T08:14:20.222Z,2.33
2024-01-08T08:19:24.242Z,2.20
2024-01-08T08:24:26.644Z,2.45
2024-01-08T08:29:29.855Z,3.03
2024-01-08T08:34:31.731Z,2.00
2024-01-08T08:39:33.282Z,2.35
2024-01-08T08:44:35.075Z,2.35
2024-01-08T08:49:36.683Z,2.20
2024-01-08T08:54:38.329Z,1.73
2024-01-08T08:59:40.435Z,2.55
2024-01-08T09:04:42.159Z,2.15
2024-01-08T09:09:43.798Z,2.15
2024-01-08T09:14:45.352Z,2.03
2024-01-08T09:19:51.606Z,2.20
2024-01-08T09:24:53.776Z,3.38
2024-01-08T09:29:55.335Z,2.47
2024-01-08T09:34:56.981Z,1.95
2024-01-08T09:39:58.556Z,2.60
2024-01-08T09:45:00.525Z,2.28
2024-01-08T09:50:02.053Z,2.30
2024-01-08T09:55:03.806Z,2.67
2024-01-08T10:00:06.839Z,2.45
2024-01-08T10:05:09.096Z,1.75
2024-01-08T10:10:10.907Z,1.80
2024-01-08T10:15:14.676Z,2.40
2024-01-08T10:20:16.680Z,2.10
2024-01-08T10:25:24.001Z,1.60
2024-01-08T10:30:27.137Z,1.40
2024-01-08T10:35:32.553Z,2.15
2024-01-08T10:40:34.705Z,1.60
2024-01-08T10:45:36.210Z,1.50
2024-01-08T10:50:41.055Z,1.52
2024-01-08T10:55:42.764Z,2.05
2024-01-08T11:00:44.310Z,1.42
2024-01-08T11:05:48.394Z,1.67
2024-01-08T11:10:50.901Z,1.70
2024-01-08T11:15:52.464Z,1.60
2024-01-08T11:20:54.272Z,1.90
2024-01-08T11:25:55.846Z,1.88
2024-01-08T11:31:16.239Z,1.90
2024-01-08T11:36:18.270Z,1.95
2024-01-08T11:41:19.927Z,1.50
2024-01-08T11:46:21.987Z,1.85
2024-01-08T11:51:23.689Z,1.85
2024-01-08T11:56:25.242Z,2.17
2024-01-08T12:01:28.538Z,1.55
2024-01-08T12:06:30.769Z,1.92
2024-01-08T12:11:32.401Z,2.30
2024-01-08T12:16:33.951Z,2.03
2024-01-08T12:21:43.493Z,1.83
2024-01-08T12:26:50.297Z,2.30
2024-01-08T12:31:57.118Z,2.10
2024-01-08T12:37:00.274Z,2.35
2024-01-08T12:42:08.139Z,2.20
2024-01-08T12:47:10.836Z,2.40
2024-01-08T12:52:12.530Z,1.30
2024-01-08T12:57:15.240Z,1.60
2024-01-08T13:02:16.934Z,1.75
2024-01-08T13:07:18.537Z,1.70
2024-01-08T13:12:20.246Z,2.03
2024-01-08T13:17:22.371Z,1.48
2024-01-08T13:22:23.888Z,2.00
2024-01-08T13:27:25.437Z,1.38
2024-01-08T13:32:26.978Z,1.88
2024-01-08T13:37:28.529Z,2.10
2024-01-08T13:42:30.070Z,1.58
2024-01-08T13:47:31.846Z,1.50
2024-01-08T13:52:33.507Z,1.95
2024-01-08T13:57:35.020Z,1.50
2024-01-08T14:02:36.843Z,2.20
2024-01-08T14:07:38.440Z,1.90
2024-01-08T14:12:39.967Z,1.88
2024-01-08T14:17:42.612Z,1.77
2024-01-08T14:22:44.241Z,2.67
2024-01-08T14:27:45.739Z,1.92
2024-01-08T14:32:47.462Z,1.58
2024-01-08T14:37:49.335Z,1.98
2024-01-08T14:42:51.255Z,1.77
2024-01-08T14:47:52.925Z,1.60
2024-01-08T14:52:54.614Z,1.90
2024-01-08T14:57:56.429Z,1.92
2024-01-08T15:02:58.067Z,1.70
2024-01-08T15:07:59.703Z,1.80
2024-01-08T15:13:01.284Z,1.95
2024-01-08T15:18:04.176Z,1.92
2024-01-08T15:23:06.116Z,2.13
2024-01-08T15:28:07.664Z,1.45
2024-01-08T15:33:09.233Z,2.35
2024-01-08T15:38:10.830Z,2.35
2024-01-08T15:43:12.372Z,2.00
2024-01-08T15:48:14.035Z,2.92
2024-01-08T15:53:18.740Z,2.22
2024-01-08T15:58:20.271Z,1.70
2024-01-08T16:03:21.864Z,1.98
2024-01-08T16:08:23.802Z,2.65
2024-01-08T16:13:25.363Z,1.92
2024-01-08T16:18:26.993Z,1.80
2024-01-08T16:23:28.567Z,1.80
2024-01-08T16:28:30.122Z,2.03
2024-01-08T16:33:31.758Z,1.50
2024-01-08T16:38:33.361Z,2.10
2024-01-08T16:43:34.904Z,1.70
2024-01-08T16:48:36.529Z,2.20
2024-01-08T16:53:38.171Z,2.33
2024-01-08T16:58:39.796Z,2.88
2024-01-08T17:03:41.415Z,2.17
2024-01-08T17:08:43.144Z,3.65
2024-01-08T17:13:44.784Z,2.15
2024-01-08T17:18:46.563Z,2.20
2024-01-08T17:23:48.279Z,2.38
2024-01-08T17:28:55.747Z,2.13
2024-01-08T17:33:57.482Z,2.47
2024-01-08T17:38:59.229Z,1.83
2024-01-08T17:44:00.866Z,2.20
2024-01-08T17:49:03.566Z,2.60
2024-01-08T17:54:05.111Z,2.45
2024-01-08T17:59:06.625Z,2.08
2024-01-08T18:04:08.638Z,2.10
2024-01-08T18:09:12.513Z,3.03
2024-01-08T18:14:15.989Z,2.28
2024-01-08T18:19:17.667Z,1.98
2024-01-08T18:24:24.357Z,2.28
2024-01-08T18:29:33.069Z,1.90
2024-01-08T18:34:35.055Z,2.20
2024-01-08T18:39:36.622Z,2.40
2024-01-08T18:44:39.354Z,2.33
2024-01-08T18:49:41.063Z,2.60
2024-01-08T18:54:42.653Z,2.53
2024-01-08T18:59:44.204Z,2.85
2024-01-08T19:04:45.863Z,2.25
2024-01-08T19:09:47.448Z,2.25
2024-01-08T19:14:49.425Z,2.20
2024-01-08T19:19:51.631Z,2.33
2024-01-08T19:24:53.283Z,2.45
2024-01-08T19:29:54.963Z,2.30
2024-01-08T19:34:56.529Z,2.45
2024-01-08T19:39:58.046Z,2.22
2024-01-08T19:44:59.574Z,2.53
2024-01-08T19:50:01.224Z,2.20
2024-01-08T19:55:02.803Z,3.58
2024-01-08T20:00:04.738Z,2.97
2024-01-08T20:05:09.866Z,2.47
2024-01-08T20:10:11.394Z,2.42
2024-01-08T20:15:14.078Z,2.35
2024-01-08T20:20:17.394Z,1.73
2024-01-08T20:25:22.302Z,2.53
2024-01-08T20:30:23.845Z,2.70
2024-01-08T20:35:25.413Z,2.88
2024-01-08T20:40:27.212Z,2.78
2024-01-08T20:45:28.798Z,2.53
2024-01-08T20:50:30.394Z,2.70
2024-01-08T20:55:32.047Z,2.95
2024-01-08T21:00:33.626Z,2.58
2024-01-08T21:05:35.249Z,2.53
2024-01-08T21:10:36.817Z,3.50
2024-01-08T21:15:38.433Z,2.15
2024-01-08T21:20:39.975Z,2.60
2024-01-08T21:25:42.173Z,2.50
2024-01-08T21:30:43.697Z,3.00
2024-01-08T21:35:45.422Z,2.63
2024-01-08T21:40:46.958Z,2.90
2024-01-08T21:45:48.470Z,2.47
2024-01-08T21:50:50.028Z,2.70
2024-01-08T21:55:51.586Z,2.85
2024-01-08T22:00:54.463Z,3.00
2024-01-08T22:05:56.394Z,2.88
2024-01-08T22:10:57.987Z,3.28
2024-01-08T22:15:59.500Z,2.78
2024-01-08T22:21:01.001Z,2.65
2024-01-08T22:26:03.029Z,2.58
2024-01-08T22:31:04.792Z,2.85
2024-01-08T22:36:06.453Z,2.33
2024-01-08T22:41:08.080Z,3.00
2024-01-08T22:46:09.766Z,3.03
2024-01-08T22:51:12.096Z,2.67
2024-01-08T22:56:13.643Z,2.78
2024-01-08T23:01:15.174Z,2.58
2024-01-08T23:06:16.833Z,2.50
2024-01-08T23:11:18.452Z,3.00
2024-01-08T23:16:19.983Z,2.95
2024-01-08T23:21:21.491Z,3.28
2024-01-08T23:26:23.032Z,2.60
2024-01-08T23:31:25.234Z,2.92
2024-01-08T23:36:27.249Z,2.75
2024-01-08T23:41:28.881Z,2.50
2024-01-08T23:46:30.417Z,2.40
2024-01-08T23:51:31.929Z,2.38
2024-01-08T23:56:33.832Z,2.40
